NIKOLSKI AK US NWS current weather conditions

sailwx.info

Wind from 250 at 19 knots gusting 46

Air temperature 0.8° C
Dewpoint -2.8° C

Last reported at 2019-Dec-15 22:32 UTC.
Time now 2019-Dec-15 23:20 UTC

Location: N 52°58' W 168°51'.
View on Google Maps.

See reports from other nearby stations

  
Tides and Currents Weather Stations Pressure Air Temp Water Temp Dewpoint Dewpoint Depression Visibility Wind Speed Wind Dir Waves Ship Positions
date/time (UTC)wind fromknots sea level pressurealtimeterstation pressurevisibilityair tempwater tempwave heightnotes
2019-Dec-15 22:32 250 19 gusting 46 0.8
2019-Dec-15 22:22 270 26 gusting 61 0.7
2019-Dec-15 22:12 260 24 gusting 48 0.8
2019-Dec-15 22:02 260 25 gusting 53 0.8
2019-Dec-15 21:52 260 22 gusting 49 0.9
2019-Dec-15 21:42 260 27 gusting 55 1.0
2019-Dec-15 21:32 260 27 gusting 75 0.9
2019-Dec-15 21:22 270 25 gusting 55 0.9
2019-Dec-15 21:12 270 28 gusting 62 0.8
2019-Dec-15 21:02 260 29 gusting 59 0.7
2019-Dec-15 20:52 260 26 gusting 56 0.5
2019-Dec-15 20:42 250 25 gusting 53 0.1
2019-Dec-15 20:32 250 17 gusting 44 -0.0
2019-Dec-15 20:22 260 22 gusting 58 0.5
2019-Dec-15 20:12 260 27 gusting 78 0.2
2019-Dec-15 20:02 250 21 gusting 58 -0.0
2019-Dec-15 19:52 250 20 gusting 65 0.1
2019-Dec-15 19:42 260 27 gusting 71 0.4
2019-Dec-15 19:32 260 22 gusting 66 0.3
2019-Dec-15 19:22 260 26 gusting 72 0.5
2019-Dec-15 19:12 260 29 gusting 60 0.4
2019-Dec-15 19:02 260 29 gusting 61 0.4
2019-Dec-15 18:52 260 29 gusting 63 0.4
2019-Dec-15 18:42 250 22 gusting 48 0.2
2019-Dec-15 18:32 260 25 gusting 69 0.5
2019-Dec-15 18:22 260 22 gusting 68 0.4
2019-Dec-15 18:12 250 24 gusting 73 0.3
2019-Dec-15 18:02 260 31 gusting 65 0.2
2019-Dec-15 17:52 250 28 gusting 73 0.3
2019-Dec-15 17:42 260 34 gusting 71 0.1
2019-Dec-15 17:32 260 34 gusting 69 0.1
2019-Dec-15 17:22 270 32 gusting 68 0.3
2019-Dec-15 17:12 260 29 gusting 61 0.2
2019-Dec-15 17:02 250 32 gusting 62 -0.1
2019-Dec-15 16:52 260 20 gusting 58 0.1
2019-Dec-15 16:42 250 28 gusting 60 -0.0
2019-Dec-15 16:32 250 27 gusting 66 0.1
2019-Dec-15 16:22 260 28 gusting 62 0.2
2019-Dec-15 16:12 260 31 gusting 66 0.3
2019-Dec-15 16:02 260 33 gusting 76 0.1
2019-Dec-15 15:52 260 20 gusting 59 -0.1
2019-Dec-15 15:42 260 29 gusting 72 0.2
2019-Dec-15 15:32 260 31 gusting 59 0.4
2019-Dec-15 15:22 260 32 gusting 78 0.4
2019-Dec-15 15:12 260 34 gusting 78 0.4
2019-Dec-15 15:02 260 35 gusting 75 0.5
2019-Dec-15 14:52 260 33 gusting 74 0.3
2019-Dec-15 14:42 260 29 gusting 62 0.2
2019-Dec-15 14:32 260 32 gusting 69 0.4
2019-Dec-15 14:22 260 34 gusting 68 0.6
2019-Dec-15 14:12 270 33 gusting 68 0.2
2019-Dec-15 14:02 260 33 gusting 73 -0.0
2019-Dec-15 13:52 260 34 gusting 76 -0.0
2019-Dec-15 13:42 260 33 gusting 68 -0.1
2019-Dec-15 13:32 260 31 gusting 59 -0.1
2019-Dec-15 13:22 270 29 gusting 63 -0.0
2019-Dec-15 13:12 270 34 gusting 69 -0.0
2019-Dec-15 13:02 280 38 gusting 72 -0.1
2019-Dec-15 12:52 260 34 gusting 78 -0.0
2019-Dec-15 12:42 260 34 gusting 62 -0.1
2019-Dec-15 12:32 260 27 gusting 68 0.1
2019-Dec-15 12:22 260 34 gusting 62 0.7
2019-Dec-15 12:12 270 36 gusting 78 0.7
2019-Dec-15 12:02 260 33 gusting 63 0.6
2019-Dec-15 11:52 270 35 gusting 74 0.6
2019-Dec-15 11:42 270 36 gusting 67 0.7
2019-Dec-15 11:32 260 31 gusting 62 0.6
2019-Dec-15 11:22 270 36 gusting 76 0.7
2019-Dec-15 11:12 260 34 gusting 78 0.6
2019-Dec-15 11:02 260 32 gusting 69 0.3
2019-Dec-15 10:52 260 32 gusting 67 -0.1
2019-Dec-15 10:42 260 29 gusting 78 0.5
2019-Dec-15 10:32 270 39 gusting 78 0.5
2019-Dec-15 10:22 270 34 gusting 78 0.2
2019-Dec-15 10:12 260 34 gusting 78 0.1
2019-Dec-15 10:02 270 35 gusting 78 0.3
2019-Dec-15 09:52 270 33 gusting 69 0.1
2019-Dec-15 09:42 270 31 gusting 62 -0.0
2019-Dec-15 09:32 250 17 gusting 44 -0.2
2019-Dec-15 09:22 270 31 gusting 73 0.4
2019-Dec-15 09:12 270 35 gusting 75 0.5
2019-Dec-15 09:02 270 33 gusting 76 0.3
2019-Dec-15 08:52 270 33 gusting 66 0.3
2019-Dec-15 08:42 260 31 gusting 78 0.6
2019-Dec-15 08:32 270 31 gusting 61 0.2
2019-Dec-15 08:22 260 27 gusting 66 0.2
2019-Dec-15 08:12 270 31 gusting 67 0.1
2019-Dec-15 08:02 270 32 gusting 65 0.3
2019-Dec-15 07:52 260 31 gusting 78 0.3
2019-Dec-15 07:42 260 33 gusting 74 0.1
2019-Dec-15 07:32 260 33 gusting 67 0.1
2019-Dec-15 07:22 260 33 gusting 68 -0.0
2019-Dec-15 07:12 250 32 gusting 66 -0.0
2019-Dec-15 07:02 260 27 gusting 55 -0.0
2019-Dec-15 06:52 260 33 gusting 71 -0.2
2019-Dec-15 06:42 260 29 gusting 66 -0.2
2019-Dec-15 06:32 250 27 gusting 66 -0.0
2019-Dec-15 06:22 260 27 gusting 66 -0.0
2019-Dec-15 06:12 270 27 gusting 78 -0.0
2019-Dec-15 06:02 260 28 gusting 62 -0.0
2019-Dec-15 05:52 260 29 gusting 74 -0.0
2019-Dec-15 05:42 250 26 gusting 73 -0.1
2019-Dec-15 05:32 250 27 gusting 66 -0.1
2019-Dec-15 05:22 250 26 gusting 68 -0.0
2019-Dec-15 05:12 250 19 gusting 47 0.1
2019-Dec-15 05:02 260 24 gusting 62 0.1
2019-Dec-15 04:52 230 18 gusting 54 0.4
2019-Dec-15 04:42 160 14 gusting 48 0.4
2019-Dec-15 04:32 230 15 gusting 39 0.4
2019-Dec-15 04:22 220 15 gusting 41 0.4
2019-Dec-15 04:12 230 14 gusting 41 0.4
2019-Dec-15 04:02 180 14 gusting 48 0.6
2019-Dec-15 03:52 170 13 gusting 44 0.7
2019-Dec-15 03:42 190 12 gusting 46 0.8
2019-Dec-15 03:32 200 13 gusting 42 0.9
2019-Dec-15 03:22 120 13 gusting 33 0.9
2019-Dec-15 03:12 180 12 gusting 28 0.9
2019-Dec-15 03:02 150 12 gusting 39 1.0
2019-Dec-15 02:52 130 13 gusting 40 1.0
2019-Dec-15 02:42 200 13 gusting 39 1.1
2019-Dec-15 02:32 220 13 gusting 41 1.1
2019-Dec-15 02:22 190 14 gusting 41 1.0
2019-Dec-15 02:12 180 13 gusting 44 1.0
2019-Dec-15 02:02 170 14 gusting 48 1.0
2019-Dec-15 01:52 150 13 gusting 31 1.1
2019-Dec-15 01:42 160 13 gusting 39 1.2
2019-Dec-15 01:32 180 15 gusting 48 1.1
2019-Dec-15 01:22 150 13 gusting 40 1.2
2019-Dec-15 01:12 030 13 gusting 34 1.3
2019-Dec-15 01:02 160 13 gusting 45 1.2
2019-Dec-15 00:52 180 12 gusting 29 1.2
2019-Dec-15 00:42 220 13 gusting 48 1.2
2019-Dec-15 00:32 140 13 gusting 44 1.3
2019-Dec-15 00:22 220 14 gusting 48 1.2
2019-Dec-15 00:12 200 13 gusting 34 1.3
2019-Dec-14 23:52 040 13 gusting 45 1.2
2019-Dec-14 23:42 320 14 gusting 49 1.0
2019-Dec-14 23:32 070 15 gusting 52 0.8
2019-Dec-14 23:22 010 17 gusting 42 0.7
2019-Dec-14 23:12 350 18 gusting 47 0.7
2019-Dec-14 23:02 290 13 gusting 36 0.8
2019-Dec-14 22:52 050 15 gusting 47 0.8
2019-Dec-14 22:42 130 13 gusting 48 1.0
2019-Dec-14 22:32 070 13 gusting 32 0.9
2019-Dec-14 22:22 360 14 gusting 46 0.8
2019-Dec-14 22:12 100 13 gusting 34 0.8
2019-Dec-14 22:02 060 13 gusting 46 0.7
2019-Dec-14 21:52 140 13 gusting 40 0.7
2019-Dec-14 21:42 340 15 gusting 54 0.8
2019-Dec-14 21:32 010 15 gusting 48 0.7
2019-Dec-14 21:22 360 18 gusting 38 0.7
2019-Dec-14 21:12 010 17 gusting 46 0.7
2019-Dec-14 21:02 010 14 gusting 42 0.7
2019-Dec-14 20:52 360 20 gusting 62 0.8
2019-Dec-14 20:42 020 15 gusting 34 1.0
2019-Dec-14 20:32 360 22 gusting 44 0.8
2019-Dec-14 20:22 010 18 gusting 42 0.9
2019-Dec-14 20:12 360 18 gusting 51 0.9
2019-Dec-14 20:02 350 20 gusting 42 1.0
2019-Dec-14 19:52 360 14 gusting 38 1.1
2019-Dec-14 19:42 340 13 gusting 32 1.1
2019-Dec-14 19:32 290 8 gusting 27 0.8
2019-Dec-14 19:22 360 12 gusting 27 0.5
2019-Dec-14 19:12 360 13 gusting 31 0.5
2019-Dec-14 19:02 010 14 gusting 34 0.6
2019-Dec-14 18:52 020 12 gusting 35 0.8
2019-Dec-14 18:42 360 12 gusting 33 0.7
2019-Dec-14 18:32 350 12 gusting 33 0.8
2019-Dec-14 18:22 230 7 gusting 25 1.2
2019-Dec-14 18:12 270 18 gusting 41 1.2
2019-Dec-14 18:02 270 20 gusting 38 1.0
2019-Dec-14 17:52 270 20 gusting 45 0.8
2019-Dec-14 17:42 270 19 gusting 39 0.7
2019-Dec-14 17:32 260 21 gusting 46 0.8
2019-Dec-14 17:22 260 21 gusting 51 1.0
2019-Dec-14 17:12 270 26 gusting 46 1.4
2019-Dec-14 17:02 250 42 gusting 61 1.0
2019-Dec-14 16:52 240 55 gusting 68 0.4
2019-Dec-14 16:42 240 54 gusting 71 0.1
2019-Dec-14 16:32 240 52 gusting 63 -0.0
2019-Dec-14 16:22 240 52 gusting 66 -0.1
2019-Dec-14 16:12 240 51 gusting 68 -0.2
2019-Dec-14 16:02 240 55 gusting 76 -0.2
2019-Dec-14 15:52 240 60 gusting 78 -0.3
2019-Dec-14 15:42 240 61 gusting 76 -0.2
2019-Dec-14 15:32 240 60 gusting 76 -0.2
2019-Dec-14 15:22 240 61 gusting 78 -0.3
2019-Dec-14 15:12 240 58 gusting 78 -0.3
2019-Dec-14 15:02 240 55 gusting 75 -0.3
2019-Dec-14 14:52 240 52 gusting 72 -0.2
2019-Dec-14 14:42 250 48 gusting 78 -0.2
2019-Dec-14 14:32 250 47 gusting 72 -0.3
2019-Dec-14 14:22 240 48 gusting 73 -0.3
2019-Dec-14 14:12 250 41 gusting 74 -0.4
2019-Dec-14 14:02 250 41 gusting 68 -0.4
2019-Dec-14 13:52 250 45 gusting 78 -0.3
2019-Dec-14 13:42 270 34 gusting 66 -0.3
2019-Dec-14 13:32 270 32 gusting 62 -0.2
2019-Dec-14 13:22 270 31 gusting 72 -0.1
2019-Dec-14 13:12 270 29 gusting 58 -0.0
2019-Dec-14 13:02 270 29 gusting 65 -0.0
2019-Dec-14 12:52 270 31 gusting 55 -0.0
2019-Dec-14 12:22 280 22 gusting 61 -0.0
2019-Dec-14 12:12 270 21 gusting 41 -0.0
2019-Dec-14 12:02 270 21 gusting 35 -0.0
2019-Dec-14 11:52 260 18 gusting 39 0.1
2019-Dec-14 11:42 260 12 gusting 32 0.3
2019-Dec-14 11:32 270 7 gusting 32 0.3
2019-Dec-14 11:22 320 7 gusting 21 0.3
2019-Dec-14 11:12 340 11 gusting 34 0.6
2019-Dec-14 11:02 340 6 gusting 20 0.7
2019-Dec-14 10:52 340 12 gusting 34 0.4
2019-Dec-14 10:42 330 15 gusting 34 0.3
2019-Dec-14 10:32 340 19 gusting 40 0.5
2019-Dec-14 10:22 340 12 gusting 29 0.5
2019-Dec-14 10:12 330 20 gusting 40 0.3
2019-Dec-14 10:02 330 29 gusting 45 0.4
2019-Dec-14 09:52 320 29 gusting 44 0.9
2019-Dec-14 09:42 330 27 gusting 47 1.2
2019-Dec-14 09:32 330 19 gusting 36 1.3
2019-Dec-14 09:22 320 24 gusting 41 1.4
2019-Dec-14 09:12 330 13 gusting 29 1.8
2019-Dec-14 09:02 340 13 gusting 25 1.9
2019-Dec-14 08:52 340 18 gusting 35 2.0
2019-Dec-14 08:42 340 20 gusting 35 2.3
2019-Dec-14 08:32 330 19 gusting 32 2.4
2019-Dec-14 08:22 320 17 gusting 36 2.3
2019-Dec-14 08:12 330 17 gusting 40 2.2
2019-Dec-14 08:02 320 20 gusting 34 2.2
2019-Dec-14 07:52 310 21 gusting 41 2.2
2019-Dec-14 07:42 300 22 2.2
2019-Dec-14 07:32 290 20 gusting 29 2.1
2019-Dec-14 07:22 290 21 gusting 41 2.1
2019-Dec-14 07:12 320 20 gusting 34 2.1
2019-Dec-14 07:02 330 24 gusting 41 2.2
2019-Dec-14 06:52 320 28 gusting 40 2.2
2019-Dec-14 06:42 320 28 gusting 38 2.3
2019-Dec-14 06:32 330 21 gusting 34 2.3
2019-Dec-14 06:22 330 15 gusting 25 2.3
2019-Dec-14 06:12 010 11 gusting 17 2.3
2019-Dec-14 06:02 040 17 gusting 26 2.1
2019-Dec-14 05:52 050 19 gusting 26 2.1
2019-Dec-14 05:42 060 19 gusting 24 2.2
2019-Dec-14 05:32 070 20 gusting 25 2.2
2019-Dec-14 05:22 070 20 gusting 26 2.3
2019-Dec-14 05:12 080 20 gusting 26 2.1
2019-Dec-14 05:02 070 21 gusting 28 1.9
2019-Dec-14 04:52 080 20 gusting 24 1.7
2019-Dec-14 04:42 090 20 gusting 24 1.6
2019-Dec-14 04:32 090 19 gusting 22 1.5
2019-Dec-14 04:22 090 19 gusting 21 1.5
2019-Dec-14 04:12 090 19 gusting 22 1.6
2019-Dec-14 04:02 090 17 gusting 21 1.6
2019-Dec-14 03:52 090 17 gusting 20 1.6
2019-Dec-14 03:42 100 13 gusting 20 1.8
2019-Dec-14 03:32 110 12 gusting 21 2.0
2019-Dec-14 03:22 110 14 gusting 20 2.2
2019-Dec-14 03:12 110 14 gusting 20 2.3
2019-Dec-14 03:02 120 15 gusting 20 2.4
2019-Dec-14 02:52 120 17 gusting 24 2.5
2019-Dec-14 02:42 120 17 gusting 20 2.6
2019-Dec-14 02:32 120 15 gusting 22 2.6
2019-Dec-14 02:22 130 13 gusting 21 2.6
2019-Dec-14 02:12 140 14 gusting 20 2.6
2019-Dec-14 02:02 140 15 gusting 24 2.6
2019-Dec-14 01:52 140 17 gusting 26 2.6
2019-Dec-14 01:42 150 18 gusting 25 2.7
2019-Dec-14 01:32 150 17 gusting 24 2.7
2019-Dec-14 01:22 160 18 gusting 22 2.7
2019-Dec-14 01:12 150 21 gusting 27 2.7
2019-Dec-14 01:02 160 22 gusting 29 2.7
2019-Dec-14 00:52 160 19 gusting 27 2.8
2019-Dec-14 00:42 170 20 gusting 27 2.9
2019-Dec-14 00:32 170 21 gusting 33 3.0
2019-Dec-14 00:22 160 24 gusting 35 3.0
2019-Dec-14 00:12 160 27 gusting 34 3.0
2019-Dec-13 23:52 160 27 gusting 39 3.2
2019-Dec-13 23:42 160 34 gusting 42 3.2
2019-Dec-13 23:32 160 34 gusting 42 3.2
2019-Dec-13 23:22 160 38 gusting 46 3.3
2019-Dec-13 23:12 160 38 gusting 48 3.2
2019-Dec-13 23:02 160 41 gusting 55 3.2